Arthur Brusco — WDC3449 — position and weather

sailwx.info

Track history (hours):
 
Tides and Currents Weather Stations Pressure Air Temp Water Temp Dewpoint Dewpoint Depression Visibility Wind Speed Wind Dir Waves Ship Positions

Arthur Brusco

Owner: Brusco Tug & Barge, Inc, Longview, WA. More information available from US FCC via Universal Licensing System and Coast Guard Vessel Documentation Center.

Last reported at 2016-Feb-08 09:33 UTC. Time now 2016-Feb-08 10:18 UTC.
Position N 37°46' W 122°15'.

Length 35 m; draft 3.2 m.

Type: Other ship. MMSI: 271040404.

Date/timePositionNaut miles runAvg speedWind from/ knotsBaromVisibWave heightAir tempDewpointWater temp
2016-Feb-08 09:33N 37°46' W 122°15'0 0.0
2016-Feb-08 08:33N 37°46' W 122°15'0 0.0
2016-Feb-08 07:33N 37°46' W 122°15'0 0.0
2016-Feb-08 06:34N 37°46' W 122°15'0 0.0
2016-Feb-08 05:34N 37°46' W 122°15'0 0.0
2016-Feb-08 04:33N 37°46' W 122°15'0 0.0
2016-Feb-08 03:33N 37°46' W 122°15'0 0.0
2016-Feb-08 02:34N 37°46' W 122°15'0 0.0
2016-Feb-08 01:33N 37°46' W 122°15'0 0.0
2016-Feb-08 00:33N 37°46' W 122°15'0 0.0
2016-Feb-07 23:33N 37°46' W 122°15'0 0.0
2016-Feb-07 22:34N 37°46' W 122°15'0 0.0
2016-Feb-07 21:33N 37°46' W 122°15'5 4.6
2016-Feb-07 20:33N 37°48' W 122°20'3 3.0
2016-Feb-07 19:33N 37°46' W 122°23'0 0.0
2016-Feb-07 18:33N 37°46' W 122°23'0 0.0
2016-Feb-07 17:33N 37°46' W 122°23'0 0.0
2016-Feb-07 16:34N 37°46' W 122°23'4 3.9
2016-Feb-07 15:33N 37°49' W 122°19'1 0.7
2016-Feb-07 14:33N 37°49' W 122°19'0 0.0
2016-Feb-07 13:33N 37°49' W 122°19'0 0.0
2016-Feb-07 12:33N 37°49' W 122°19'0 0.0
2016-Feb-07 11:34N 37°49' W 122°19'0 0.0
2016-Feb-07 10:33N 37°49' W 122°19'0 0.0
2016-Feb-07 09:33N 37°49' W 122°19'0 0.0
2016-Feb-07 08:33N 37°49' W 122°19'0 0.0
2016-Feb-07 07:33N 37°49' W 122°19'0 0.0
2016-Feb-07 06:34N 37°49' W 122°19'0 0.0
2016-Feb-07 05:34N 37°49' W 122°19'0 0.0
2016-Feb-07 04:33N 37°49' W 122°19'0 0.0
2016-Feb-07 03:33N 37°49' W 122°19'0 0.0
2016-Feb-07 02:33N 37°49' W 122°19'0 0.0
2016-Feb-07 01:34N 37°49' W 122°19'0 0.0
2016-Feb-07 00:34N 37°49' W 122°19'0 0.0
2016-Feb-06 23:34N 37°49' W 122°19'0 0.0
2016-Feb-06 22:33N 37°49' W 122°19'0 0.0
2016-Feb-06 21:33N 37°49' W 122°19'0 0.0
2016-Feb-06 20:33N 37°49' W 122°19'0 0.1
2016-Feb-06 19:33N 37°49' W 122°19'0 0.0
2016-Feb-06 18:33N 37°49' W 122°19'0 0.0
2016-Feb-06 17:34N 37°49' W 122°19'0 0.0
2016-Feb-06 16:34N 37°49' W 122°19'0 0.0
2016-Feb-06 15:34N 37°49' W 122°19'0 0.0
2016-Feb-06 14:34N 37°49' W 122°19'0 0.0
2016-Feb-06 13:34N 37°49' W 122°19'0 0.0
2016-Feb-06 12:33N 37°49' W 122°19'0 0.0
2016-Feb-06 11:33N 37°49' W 122°19'0 0.0
2016-Feb-06 10:33N 37°49' W 122°19'0 0.0
2016-Feb-06 09:34N 37°49' W 122°19'0 0.0
2016-Feb-06 08:34N 37°49' W 122°19'0 0.0
2016-Feb-06 07:34N 37°49' W 122°19'0 0.0
2016-Feb-06 06:34N 37°49' W 122°19'0 0.0
2016-Feb-06 05:33N 37°49' W 122°19'0 0.0
2016-Feb-06 04:33N 37°49' W 122°19'0 0.0
2016-Feb-06 03:33N 37°49' W 122°19'0 0.0
2016-Feb-06 02:34N 37°49' W 122°19'0 0.1
2016-Feb-06 01:33N 37°49' W 122°19'0 0.1
2016-Feb-06 00:34N 37°49' W 122°19'0 0.0
2016-Feb-05 23:34N 37°49' W 122°19'0 0.0
2016-Feb-05 22:34N 37°49' W 122°19'0 0.0
2016-Feb-05 21:33N 37°49' W 122°19'0 0.0
2016-Feb-05 20:34N 37°49' W 122°19'0 0.0
2016-Feb-05 19:33N 37°49' W 122°19'2 1.8
2016-Feb-05 18:33N 37°48' W 122°21'2 1.6
2016-Feb-05 17:33N 37°49' W 122°19'0 0.3
2016-Feb-05 16:33N 37°49' W 122°19'0 0.0
2016-Feb-05 15:33N 37°49' W 122°19'0 0.0
2016-Feb-05 14:33N 37°49' W 122°19'0 0.0
2016-Feb-05 13:33N 37°49' W 122°19'0 0.0
2016-Feb-05 12:33N 37°49' W 122°19'0 0.0
2016-Feb-05 11:33N 37°49' W 122°19'0 0.0
2016-Feb-05 10:33N 37°49' W 122°19'0 0.0
2016-Feb-05 09:33N 37°49' W 122°19'0 0.0
2016-Feb-05 08:33N 37°49' W 122°19'0 0.0
2016-Feb-05 07:33N 37°49' W 122°19'0 0.0
2016-Feb-05 06:33N 37°49' W 122°19'0 0.0
2016-Feb-05 05:33N 37°49' W 122°19'0 0.0
2016-Feb-05 04:33N 37°49' W 122°19'2 2.2
2016-Feb-05 03:33N 37°49' W 122°21'1 0.8
2016-Feb-05 02:34N 37°50' W 122°21'0 0.0
2016-Feb-05 01:34N 37°50' W 122°21'0 0.1
2016-Feb-05 00:34N 37°50' W 122°21'4 4.0
2016-Feb-04 23:34N 37°53' W 122°24'9 9.1
2016-Feb-04 22:33N 38°02' W 122°22'4 0.2
2016-Feb-04 07:32N 38°03' W 122°18'9 8.6
2016-Feb-04 06:30N 37°57' W 122°26'9 9.0
2016-Feb-04 05:33N 37°49' W 122°22'0 0.3
2016-Feb-04 04:34N 37°49' W 122°21'2 2.1
2016-Feb-04 03:34N 37°49' W 122°19'1 0.6
2016-Feb-04 02:33N 37°49' W 122°19'1 0.7
2016-Feb-04 01:34N 37°49' W 122°19'2 2.2
2016-Feb-04 00:33N 37°50' W 122°21'10 9.6
2016-Feb-03 23:33N 37°59' W 122°26'1211.8
2016-Feb-03 22:30N 38°03' W 122°11'2 0.2
2016-Feb-03 10:33N 38°04' W 122°14'8 7.7
2016-Feb-03 09:32N 38°01' W 122°23'7 7.6
2016-Feb-03 08:33N 37°54' W 122°25'5 4.7
2016-Feb-03 07:33N 37°50' W 122°21'6 6.3
2016-Feb-03 06:33N 37°55' W 122°25'9 8.7
2016-Feb-03 05:32N 38°03' W 122°19'9 8.9
2016-Feb-03 04:33N 38°02' W 122°08'4 0.2
2016-Feb-02 03:23N 38°04' W 122°13'8 9.5
2016-Feb-02 02:33N 38°01' W 122°23'8 8.5
2016-Feb-02 01:33N 37°53' W 122°26'5 4.7
2016-Feb-02 00:33N 37°50' W 122°22'10 9.5
2016-Feb-01 23:33N 37°59' W 122°26'11 9.9
2016-Feb-01 22:28N 38°04' W 122°14'1 0.1
2016-Feb-01 15:33N 38°04' W 122°15'8 8.0
2016-Feb-01 14:33N 38°00' W 122°24'2 2.1
2016-Feb-01 13:33N 37°59' W 122°26'0 0.0
2016-Feb-01 12:33N 37°59' W 122°26'0 0.0
2016-Feb-01 11:33N 37°59' W 122°26'0 0.1
2016-Feb-01 10:26N 37°59' W 122°26'0 0.1
2016-Feb-01 09:26N 37°59' W 122°26'0 0.1
2016-Feb-01 08:32N 37°59' W 122°26'0 0.0
2016-Feb-01 07:32N 37°59' W 122°26'1 1.2
2016-Feb-01 06:31N 37°58' W 122°27'5 5.1
2016-Feb-01 05:33N 37°53' W 122°25'4 3.6
2016-Feb-01 04:33N 37°50' W 122°22'2 2.1
2016-Feb-01 03:33N 37°48' W 122°21'2 2.4
2016-Feb-01 02:33N 37°49' W 122°18'0 0.0
2016-Feb-01 01:33N 37°49' W 122°18'0 0.0
2016-Feb-01 00:33N 37°49' W 122°18'0 0.0
2016-Jan-31 23:33N 37°49' W 122°19'0 0.0
2016-Jan-31 22:33N 37°49' W 122°19'0 0.0
2016-Jan-31 21:33N 37°49' W 122°19'0 0.0
2016-Jan-31 20:33N 37°49' W 122°19'0 0.0
2016-Jan-31 19:33N 37°49' W 122°19'0 0.2
2016-Jan-31 18:33N 37°49' W 122°19'0 0.1
2016-Jan-31 17:33N 37°49' W 122°19'0 0.0
2016-Jan-31 16:33N 37°49' W 122°19'0 0.2
2016-Jan-31 15:33N 37°49' W 122°19'2 2.3
2016-Jan-31 14:33N 37°50' W 122°21'0 0.1
2016-Jan-31 13:33N 37°50' W 122°21'6 5.6
2016-Jan-31 12:34N 37°55' W 122°25'7 7.0
2016-Jan-31 11:33N 38°01' W 122°23'8 8.3
2016-Jan-31 10:33N 38°03' W 122°12'1 0.1
2016-Jan-31 01:25N 38°03' W 122°11'6 7.3
2016-Jan-31 00:32N 38°03' W 122°19'7 7.1
2016-Jan-30 23:33N 37°59' W 122°27'0 0.1
2016-Jan-30 22:33N 37°59' W 122°26'8 7.9
2016-Jan-30 21:33N 37°51' W 122°24'5 4.8
2016-Jan-30 20:33N 37°48' W 122°20'7 7.4
2016-Jan-30 19:33N 37°54' W 122°25'10 9.8
2016-Jan-30 18:33N 38°03' W 122°19'5 0.6
2016-Jan-30 10:22N 38°04' W 122°13'7 7.6
2016-Jan-30 09:27N 38°02' W 122°22'7 7.8
2016-Jan-30 08:33N 37°56' W 122°27'7 7.0
2016-Jan-30 07:33N 37°50' W 122°22'0 0.4
2016-Jan-30 06:33N 37°50' W 122°22'5 5.0
2016-Jan-30 05:33N 37°54' W 122°25'9 8.9
2016-Jan-30 04:33N 38°03' W 122°20'5 0.6
2016-Jan-29 20:29N 38°04' W 122°15'6 6.9
2016-Jan-29 19:33N 38°01' W 122°22'7 7.1
2016-Jan-29 18:33N 37°55' W 122°25'2 2.2
2016-Jan-29 17:34N 37°53' W 122°24'4 3.8
2016-Jan-29 16:33N 37°50' W 122°21'0 0.4
2016-Jan-29 15:33N 37°50' W 122°22'0 0.2
2016-Jan-29 14:33N 37°50' W 122°21'0 0.1
2016-Jan-29 13:33N 37°50' W 122°21'0 0.0
2016-Jan-29 12:33N 37°50' W 122°21'0 0.1
2016-Jan-29 11:33N 37°50' W 122°21'0 0.1
2016-Jan-29 10:33N 37°50' W 122°21'0 0.0
2016-Jan-29 09:33N 37°50' W 122°21'  
Track history (hours):
 
Tides and Currents Weather Stations Pressure Air Temp Water Temp Dewpoint Dewpoint Depression Visibility Wind Speed Wind Dir Waves Ship Positions

Arthur Brusco

Owner: Brusco Tug & Barge, Inc, Longview, WA. More information available from US FCC via Universal Licensing System and Coast Guard Vessel Documentation Center.

Last reported at 2016-Feb-08 09:33 UTC. Time now 2016-Feb-08 10:18 UTC.
Position N 37°46' W 122°15'.

Length 35 m; draft 3.2 m.

Type: Other ship. MMSI: 271040404.

Date/timePositionNaut miles runAvg speedWind from/ knotsBaromVisibWave heightAir tempDewpointWater temp
2016-Feb-08 09:33N 37°46' W 122°15'0 0.0
2016-Feb-08 08:33N 37°46' W 122°15'0 0.0
2016-Feb-08 07:33N 37°46' W 122°15'0 0.0
2016-Feb-08 06:34N 37°46' W 122°15'0 0.0
2016-Feb-08 05:34N 37°46' W 122°15'0 0.0
2016-Feb-08 04:33N 37°46' W 122°15'0 0.0
2016-Feb-08 03:33N 37°46' W 122°15'0 0.0
2016-Feb-08 02:34N 37°46' W 122°15'0 0.0
2016-Feb-08 01:33N 37°46' W 122°15'0 0.0
2016-Feb-08 00:33N 37°46' W 122°15'0 0.0
2016-Feb-07 23:33N 37°46' W 122°15'0 0.0
2016-Feb-07 22:34N 37°46' W 122°15'0 0.0
2016-Feb-07 21:33N 37°46' W 122°15'5 4.6
2016-Feb-07 20:33N 37°48' W 122°20'3 3.0
2016-Feb-07 19:33N 37°46' W 122°23'0 0.0
2016-Feb-07 18:33N 37°46' W 122°23'0 0.0
2016-Feb-07 17:33N 37°46' W 122°23'0 0.0
2016-Feb-07 16:34N 37°46' W 122°23'4 3.9
2016-Feb-07 15:33N 37°49' W 122°19'1 0.7
2016-Feb-07 14:33N 37°49' W 122°19'0 0.0
2016-Feb-07 13:33N 37°49' W 122°19'0 0.0
2016-Feb-07 12:33N 37°49' W 122°19'0 0.0
2016-Feb-07 11:34N 37°49' W 122°19'0 0.0
2016-Feb-07 10:33N 37°49' W 122°19'0 0.0
2016-Feb-07 09:33N 37°49' W 122°19'0 0.0
2016-Feb-07 08:33N 37°49' W 122°19'0 0.0
2016-Feb-07 07:33N 37°49' W 122°19'0 0.0
2016-Feb-07 06:34N 37°49' W 122°19'0 0.0
2016-Feb-07 05:34N 37°49' W 122°19'0 0.0
2016-Feb-07 04:33N 37°49' W 122°19'0 0.0
2016-Feb-07 03:33N 37°49' W 122°19'0 0.0
2016-Feb-07 02:33N 37°49' W 122°19'0 0.0
2016-Feb-07 01:34N 37°49' W 122°19'0 0.0
2016-Feb-07 00:34N 37°49' W 122°19'0 0.0
2016-Feb-06 23:34N 37°49' W 122°19'0 0.0
2016-Feb-06 22:33N 37°49' W 122°19'0 0.0
2016-Feb-06 21:33N 37°49' W 122°19'0 0.0
2016-Feb-06 20:33N 37°49' W 122°19'0 0.1
2016-Feb-06 19:33N 37°49' W 122°19'0 0.0
2016-Feb-06 18:33N 37°49' W 122°19'0 0.0
2016-Feb-06 17:34N 37°49' W 122°19'0 0.0
2016-Feb-06 16:34N 37°49' W 122°19'0 0.0
2016-Feb-06 15:34N 37°49' W 122°19'0 0.0
2016-Feb-06 14:34N 37°49' W 122°19'0 0.0
2016-Feb-06 13:34N 37°49' W 122°19'0 0.0
2016-Feb-06 12:33N 37°49' W 122°19'0 0.0
2016-Feb-06 11:33N 37°49' W 122°19'0 0.0
2016-Feb-06 10:33N 37°49' W 122°19'0 0.0
2016-Feb-06 09:34N 37°49' W 122°19'0 0.0
2016-Feb-06 08:34N 37°49' W 122°19'0 0.0
2016-Feb-06 07:34N 37°49' W 122°19'0 0.0
2016-Feb-06 06:34N 37°49' W 122°19'0 0.0
2016-Feb-06 05:33N 37°49' W 122°19'0 0.0
2016-Feb-06 04:33N 37°49' W 122°19'0 0.0
2016-Feb-06 03:33N 37°49' W 122°19'0 0.0
2016-Feb-06 02:34N 37°49' W 122°19'0 0.1
2016-Feb-06 01:33N 37°49' W 122°19'0 0.1
2016-Feb-06 00:34N 37°49' W 122°19'0 0.0
2016-Feb-05 23:34N 37°49' W 122°19'0 0.0
2016-Feb-05 22:34N 37°49' W 122°19'0 0.0
2016-Feb-05 21:33N 37°49' W 122°19'0 0.0
2016-Feb-05 20:34N 37°49' W 122°19'0 0.0
2016-Feb-05 19:33N 37°49' W 122°19'2 1.8
2016-Feb-05 18:33N 37°48' W 122°21'2 1.6
2016-Feb-05 17:33N 37°49' W 122°19'0 0.3
2016-Feb-05 16:33N 37°49' W 122°19'0 0.0
2016-Feb-05 15:33N 37°49' W 122°19'0 0.0
2016-Feb-05 14:33N 37°49' W 122°19'0 0.0
2016-Feb-05 13:33N 37°49' W 122°19'0 0.0
2016-Feb-05 12:33N 37°49' W 122°19'0 0.0
2016-Feb-05 11:33N 37°49' W 122°19'0 0.0
2016-Feb-05 10:33N 37°49' W 122°19'0 0.0
2016-Feb-05 09:33N 37°49' W 122°19'0 0.0
2016-Feb-05 08:33N 37°49' W 122°19'0 0.0
2016-Feb-05 07:33N 37°49' W 122°19'0 0.0
2016-Feb-05 06:33N 37°49' W 122°19'0 0.0
2016-Feb-05 05:33N 37°49' W 122°19'0 0.0
2016-Feb-05 04:33N 37°49' W 122°19'2 2.2
2016-Feb-05 03:33N 37°49' W 122°21'1 0.8
2016-Feb-05 02:34N 37°50' W 122°21'0 0.0
2016-Feb-05 01:34N 37°50' W 122°21'0 0.1
2016-Feb-05 00:34N 37°50' W 122°21'4 4.0
2016-Feb-04 23:34N 37°53' W 122°24'9 9.1
2016-Feb-04 22:33N 38°02' W 122°22'4 0.2
2016-Feb-04 07:32N 38°03' W 122°18'9 8.6
2016-Feb-04 06:30N 37°57' W 122°26'9 9.0
2016-Feb-04 05:33N 37°49' W 122°22'0 0.3
2016-Feb-04 04:34N 37°49' W 122°21'2 2.1
2016-Feb-04 03:34N 37°49' W 122°19'1 0.6
2016-Feb-04 02:33N 37°49' W 122°19'1 0.7
2016-Feb-04 01:34N 37°49' W 122°19'2 2.2
2016-Feb-04 00:33N 37°50' W 122°21'10 9.6
2016-Feb-03 23:33N 37°59' W 122°26'1211.8
2016-Feb-03 22:30N 38°03' W 122°11'2 0.2
2016-Feb-03 10:33N 38°04' W 122°14'8 7.7
2016-Feb-03 09:32N 38°01' W 122°23'7 7.6
2016-Feb-03 08:33N 37°54' W 122°25'5 4.7
2016-Feb-03 07:33N 37°50' W 122°21'6 6.3
2016-Feb-03 06:33N 37°55' W 122°25'9 8.7
2016-Feb-03 05:32N 38°03' W 122°19'9 8.9
2016-Feb-03 04:33N 38°02' W 122°08'4 0.2
2016-Feb-02 03:23N 38°04' W 122°13'8 9.5
2016-Feb-02 02:33N 38°01' W 122°23'8 8.5
2016-Feb-02 01:33N 37°53' W 122°26'5 4.7
2016-Feb-02 00:33N 37°50' W 122°22'10 9.5
2016-Feb-01 23:33N 37°59' W 122°26'11 9.9
2016-Feb-01 22:28N 38°04' W 122°14'1 0.1
2016-Feb-01 15:33N 38°04' W 122°15'8 8.0
2016-Feb-01 14:33N 38°00' W 122°24'2 2.1
2016-Feb-01 13:33N 37°59' W 122°26'0 0.0
2016-Feb-01 12:33N 37°59' W 122°26'0 0.0
2016-Feb-01 11:33N 37°59' W 122°26'0 0.1
2016-Feb-01 10:26N 37°59' W 122°26'0 0.1
2016-Feb-01 09:26N 37°59' W 122°26'0 0.1
2016-Feb-01 08:32N 37°59' W 122°26'0 0.0
2016-Feb-01 07:32N 37°59' W 122°26'1 1.2
2016-Feb-01 06:31N 37°58' W 122°27'5 5.1
2016-Feb-01 05:33N 37°53' W 122°25'4 3.6
2016-Feb-01 04:33N 37°50' W 122°22'2 2.1
2016-Feb-01 03:33N 37°48' W 122°21'2 2.4
2016-Feb-01 02:33N 37°49' W 122°18'0 0.0
2016-Feb-01 01:33N 37°49' W 122°18'0 0.0
2016-Feb-01 00:33N 37°49' W 122°18'0 0.0
2016-Jan-31 23:33N 37°49' W 122°19'0 0.0
2016-Jan-31 22:33N 37°49' W 122°19'0 0.0
2016-Jan-31 21:33N 37°49' W 122°19'0 0.0
2016-Jan-31 20:33N 37°49' W 122°19'0 0.0
2016-Jan-31 19:33N 37°49' W 122°19'0 0.2
2016-Jan-31 18:33N 37°49' W 122°19'0 0.1
2016-Jan-31 17:33N 37°49' W 122°19'0 0.0
2016-Jan-31 16:33N 37°49' W 122°19'0 0.2
2016-Jan-31 15:33N 37°49' W 122°19'2 2.3
2016-Jan-31 14:33N 37°50' W 122°21'0 0.1
2016-Jan-31 13:33N 37°50' W 122°21'6 5.6
2016-Jan-31 12:34N 37°55' W 122°25'7 7.0
2016-Jan-31 11:33N 38°01' W 122°23'8 8.3
2016-Jan-31 10:33N 38°03' W 122°12'1 0.1
2016-Jan-31 01:25N 38°03' W 122°11'6 7.3
2016-Jan-31 00:32N 38°03' W 122°19'7 7.1
2016-Jan-30 23:33N 37°59' W 122°27'0 0.1
2016-Jan-30 22:33N 37°59' W 122°26'8 7.9
2016-Jan-30 21:33N 37°51' W 122°24'5 4.8
2016-Jan-30 20:33N 37°48' W 122°20'7 7.4
2016-Jan-30 19:33N 37°54' W 122°25'10 9.8
2016-Jan-30 18:33N 38°03' W 122°19'5 0.6
2016-Jan-30 10:22N 38°04' W 122°13'7 7.6
2016-Jan-30 09:27N 38°02' W 122°22'7 7.8
2016-Jan-30 08:33N 37°56' W 122°27'7 7.0
2016-Jan-30 07:33N 37°50' W 122°22'0 0.4
2016-Jan-30 06:33N 37°50' W 122°22'5 5.0
2016-Jan-30 05:33N 37°54' W 122°25'9 8.9
2016-Jan-30 04:33N 38°03' W 122°20'5 0.6
2016-Jan-29 20:29N 38°04' W 122°15'6 6.9
2016-Jan-29 19:33N 38°01' W 122°22'7 7.1
2016-Jan-29 18:33N 37°55' W 122°25'2 2.2
2016-Jan-29 17:34N 37°53' W 122°24'4 3.8
2016-Jan-29 16:33N 37°50' W 122°21'0 0.4
2016-Jan-29 15:33N 37°50' W 122°22'0 0.2
2016-Jan-29 14:33N 37°50' W 122°21'0 0.1
2016-Jan-29 13:33N 37°50' W 122°21'0 0.0
2016-Jan-29 12:33N 37°50' W 122°21'0 0.1
2016-Jan-29 11:33N 37°50' W 122°21'0 0.1
2016-Jan-29 10:33N 37°50' W 122°21'0 0.0
2016-Jan-29 09:33N 37°50' W 122°21'  

Dump ship's entire track history